Hollis, North Carolina
Current Conditions -  °F | °C
As of 4:15 AM on Saturday 01 Nov 2014 (Local Time) from KFQD Reporting Station
Light Rain Light Rain  
Wind Chill: 36°   Ceiling: 4700
Heat Index: 40°   Visibility: 10mi
Dew Point: 31°   Wind: 7mph
Humidity: 68%   Direction: 360°N
Pressure: 29.74"   Gusts: 21mph
Location:  35.3839°N, 81.7531°W
Report Text: KFQD 010815Z AUTO 36006G18KT 10SM -RA OVC047 05/M01 A2974 RMK AO2 T00471007
Loading
Personal Weather Stations






























Interactive Weather Map
Tropical Storm Tracking
New forecast layout! Learn more

10-Day Weather Forecast

Advertisements
Track Severe Weather on mobile